Terminal Aerodrome Forecast
Issued by NWS Atlanta, GA

Home | Current Version | Previous Version | Text Only | Print | Product List | Glossary On
Versions: 1 2 3 4 5 6 7 8 9 10 11 12 13 14 15 16 17 18 19 20 21 22
145
FTUS42 KFFC 231407 AAA
TAFCSG
TAF AMD
KCSG 231407Z 2314/2412 12005KT 4SM -SHRA SCT012 BKN045
      TEMPO 2315/2318 2SM -TSRA BKN012CB
     FM231800 22004KT 5SM -SHRA OVC012
     FM232100 23007KT P6SM VCSH BKN030
     FM240400 19003KT P6SM VCSH OVC015
     FM240900 20003KT 6SM -SHRA VCTS OVC008CB=

USA.gov is the U.S. government's official web portal to all federal, state and local government web resources and services.